Palermo, ME (04354)

12:23 PM EST die 28o February, anno 2015 (GMT -0500)
Cross Road | Change Station
CLOSE
Current Station
Personal Weather Stations
Location: China, ME
Elevation: 341 ft
Nearby Weather Stations

Elev 341 ft 44.43 °N, 69.52 °W | Updated 3 seconds ago

Serena
Serena
26.1 °F
Feels Like 18 °F
N
7.0
Ventus Variabilis Ventus from Magis Zephyrus quam Auster
Gusts 15.0 mph

Hodie
High -- | Low -- °F
--% Chance of Precip.
Yesterday
High -- | Low -- °F
Precip. -- in
6:17 AM 5:24 PM
Waxing Gibbous, 79% visible
Pressio 30.61 in
Visibilitas -9999.0 milia passuum
Clouds Serena
Frigus Venti 18 °F
Frigus in quo Ros apparet 2 °F
Umor 35%
Rainfall 0.00 in
Snow Depth Not available.
UV 5 out of 12
Pollen .10 out of 12
Air Quality Not available.
Flu Activity Not available.
METAR KWVL 281715Z 21008KT CLR M04/M18 A3061 RMK AO1

More Conditions Fewer Conditions

Pressio 30.61 in
Visibilitas -9999.0 milia passuum
Clouds Serena
Frigus Venti 18 °F
Frigus in quo Ros apparet 2 °F
Umor 35%
Rainfall 0.00 in
Snow Depth Not available.
UV 5 out of 12
Pollen .10 out of 12
Air Quality Not available.
Flu Activity Not available.
METAR KWVL 281715Z 21008KT CLR M04/M18 A3061 RMK AO1

More Conditions Fewer Conditions

10-Day Weather Forecast

Almanac

Astronomy

Feb. 28, 2015 Rise Set
Actual Time
Civil Twilight
Nautical Twilight
Astronomical Twilight
Moon
Length Of Visible Light
Length of Day
Tomorrow will be .
, % of the Moon is Illuminated

Today's Extremes

State Highs State Lows

Community

WunderPhotos

Upload Photos

1,801,101 photos uploaded!

WunderBlogs® & News

Nearby

Air Quality

  Air Quality AQ Index Pollutant
Not available.

Snow Depth

Station Depth Elevation

Earthquake Activity

City Distance Mag. Time & Date
Minimum magnitude displayed is 2.5.

Coastal Water Temperatures

Locus Calor

Nearby Weather Stations